createdAt,value
2018-08-12T00:01:19.939Z,0.00
2018-08-12T00:12:29.536Z,0.00
2018-08-12T00:16:24.872Z,0.00
2018-08-12T00:21:20.032Z,0.00
2018-08-12T00:29:46.441Z,0.00
2018-08-12T00:30:49.242Z,0.00
2018-08-12T00:33:50.410Z,0.00
2018-08-12T00:41:18.289Z,0.00
2018-08-12T00:45:18.876Z,0.00
2018-08-12T00:48:16.533Z,0.00
2018-08-12T00:51:59.257Z,0.00
2018-08-12T01:03:52.851Z,0.00
2018-08-12T01:09:42.600Z,0.00
2018-08-12T01:10:42.597Z,0.00
2018-08-12T01:23:02.659Z,0.00
2018-08-12T01:29:05.270Z,0.00
2018-08-12T01:34:41.974Z,0.00
2018-08-12T01:35:42.405Z,0.00
2018-08-12T01:55:43.352Z,0.00
2018-08-12T02:11:15.990Z,0.00
2018-08-12T02:21:39.291Z,0.00
2018-08-12T02:26:58.321Z,0.00
2018-08-12T02:30:47.924Z,0.00
2018-08-12T02:33:01.732Z,0.00
2018-08-12T02:40:24.449Z,0.00
2018-08-12T02:55:09.884Z,0.00
2018-08-12T03:14:32.532Z,0.00
2018-08-12T03:17:28.310Z,0.00
2018-08-12T03:18:29.458Z,0.00
2018-08-12T03:19:48.700Z,0.00
2018-08-12T03:20:27.480Z,0.00
2018-08-12T03:24:07.920Z,0.00
2018-08-12T03:25:08.153Z,0.00
2018-08-12T03:34:32.082Z,0.00
2018-08-12T03:45:48.612Z,0.00
2018-08-12T03:49:34.176Z,0.00
2018-08-12T04:10:27.235Z,5.63
2018-08-12T04:11:53.927Z,5.63
2018-08-12T04:12:27.166Z,11.25
2018-08-12T04:25:10.355Z,33.75
2018-08-12T04:28:11.371Z,39.38
2018-08-12T04:36:07.705Z,61.88
2018-08-12T05:23:35.934Z,140.63
2018-08-12T06:01:14.674Z,213.75
2018-08-12T06:02:09.852Z,213.75
2018-08-12T06:24:06.356Z,270.00
2018-08-12T06:25:05.003Z,253.13
2018-08-12T10:25:37.676Z,511.88
2018-08-12T10:38:55.188Z,500.63
2018-08-12T10:39:39.615Z,495.00
2018-08-12T10:40:36.718Z,495.00
2018-08-12T10:41:37.636Z,506.25
2018-08-12T10:44:45.727Z,495.00
2018-08-12T10:47:07.173Z,500.63
2018-08-12T11:06:38.959Z,466.88
2018-08-12T11:07:38.704Z,472.50
2018-08-12T11:10:25.882Z,500.63
2018-08-12T11:11:39.174Z,495.00
2018-08-12T11:12:24.680Z,500.63
2018-08-12T11:16:43.107Z,506.25
2018-08-12T11:24:45.074Z,545.63
2018-08-12T11:27:27.997Z,562.50
2018-08-12T11:28:25.261Z,562.50
2018-08-12T11:30:59.236Z,590.63
2018-08-12T11:31:58.902Z,624.38
2018-08-12T11:32:59.109Z,646.88
2018-08-12T11:34:09.345Z,708.75
2018-08-12T11:35:56.811Z,781.88
2018-08-12T11:36:55.705Z,708.75
2018-08-12T11:38:55.714Z,680.63
2018-08-12T11:39:54.776Z,680.63
2018-08-12T11:40:54.189Z,691.88
2018-08-12T11:41:54.794Z,708.75
2018-08-12T11:42:53.867Z,725.63
2018-08-12T11:43:53.839Z,731.25
2018-08-12T11:44:53.786Z,736.88
2018-08-12T11:45:53.817Z,736.88
2018-08-12T11:46:53.717Z,742.50
2018-08-12T11:47:53.756Z,742.50
2018-08-12T11:48:53.693Z,765.00
2018-08-12T11:49:53.842Z,776.25
2018-08-12T11:50:53.733Z,793.13
2018-08-12T11:51:53.723Z,798.75
2018-08-12T11:52:53.697Z,815.63
2018-08-12T11:53:53.715Z,804.38
2018-08-12T11:54:53.622Z,804.38
2018-08-12T11:55:53.640Z,781.88
2018-08-12T11:56:53.603Z,849.38
2018-08-12T11:57:53.598Z,877.50
2018-08-12T11:58:53.653Z,916.88
2018-08-12T11:59:53.480Z,933.75
2018-08-12T12:00:53.745Z,956.25
2018-08-12T12:03:23.931Z,1063.13
2018-08-12T12:04:23.423Z,1158.75
2018-08-12T12:06:17.785Z,1580.63
2018-08-12T12:07:17.313Z,2109.38
2018-08-12T12:09:21.920Z,3746.25
2018-08-12T12:10:21.585Z,3526.88
2018-08-12T12:12:27.036Z,3684.38
2018-08-12T12:13:26.866Z,4241.25
2018-08-12T12:15:25.255Z,3549.38
2018-08-12T12:16:24.428Z,4027.50
2018-08-12T12:18:28.922Z,4612.50
2018-08-12T12:21:29.743Z,5175.00
2018-08-12T12:22:29.664Z,5383.13
2018-08-12T12:24:41.185Z,6046.88
2018-08-12T12:25:40.971Z,6468.75
2018-08-12T12:27:36.311Z,5371.88
2018-08-12T12:28:35.761Z,5248.13
2018-08-12T12:30:33.313Z,5445.00
2018-08-12T12:31:33.106Z,4561.88
2018-08-12T12:33:37.673Z,4038.75
2018-08-12T12:34:38.322Z,3937.50
2018-08-12T12:36:53.051Z,3740.63
2018-08-12T12:37:49.803Z,3785.63
2018-08-12T12:38:49.954Z,3718.13
2018-08-12T12:39:50.404Z,3729.38
2018-08-12T12:40:49.453Z,3684.38
2018-08-12T12:42:05.077Z,3386.25
2018-08-12T12:43:52.928Z,3436.88
2018-08-12T12:44:52.841Z,3453.75
2018-08-12T12:46:58.441Z,3453.75
2018-08-12T12:47:58.144Z,3301.88
2018-08-12T12:49:59.081Z,2913.75
2018-08-12T12:50:59.604Z,3144.38
2018-08-12T12:53:22.409Z,2981.25
2018-08-12T12:54:21.371Z,2756.25
2018-08-12T12:56:13.358Z,3324.38
2018-08-12T12:57:13.020Z,3307.50
2018-08-12T12:59:23.648Z,3138.75
2018-08-12T13:00:23.346Z,3105.00
2018-08-12T13:02:28.618Z,3363.75
2018-08-12T13:03:49.728Z,2947.50
2018-08-12T13:05:25.602Z,3003.75
2018-08-12T13:06:25.600Z,2896.88
2018-08-12T13:08:23.628Z,3133.13
2018-08-12T13:09:24.430Z,3240.00
2018-08-12T13:11:24.189Z,3290.63
2018-08-12T13:12:24.576Z,3386.25
2018-08-12T13:14:33.746Z,3763.13
2018-08-12T13:15:33.310Z,3763.13
2018-08-12T13:17:33.626Z,3763.13
2018-08-12T13:18:33.325Z,4280.63
2018-08-12T13:20:29.437Z,4606.88
2018-08-12T13:21:29.022Z,5017.50
2018-08-12T13:23:39.150Z,5276.25
2018-08-12T13:24:55.856Z,5512.50
2018-08-12T13:26:39.609Z,5934.38
2018-08-12T13:27:39.383Z,6626.25
2018-08-12T13:29:43.072Z,6260.63
2018-08-12T13:30:43.367Z,5490.00
2018-08-12T13:32:42.186Z,4516.88
2018-08-12T13:33:42.286Z,4016.25
2018-08-12T13:34:41.757Z,3594.38
2018-08-12T13:35:41.901Z,3436.88
2018-08-12T13:36:41.801Z,3285.00
2018-08-12T13:37:41.556Z,3031.88
2018-08-12T13:38:41.614Z,3093.75
2018-08-12T13:39:41.672Z,3048.75
2018-08-12T13:40:41.596Z,3105.00
2018-08-12T13:41:41.727Z,3144.38
2018-08-12T13:42:41.505Z,3150.00
2018-08-12T13:43:41.552Z,3138.75
2018-08-12T13:44:41.488Z,3127.50
2018-08-12T13:45:41.468Z,3121.88
2018-08-12T13:46:41.506Z,3020.63
2018-08-12T13:47:41.495Z,3183.75
2018-08-12T13:48:41.552Z,3071.25
2018-08-12T13:49:41.432Z,3082.50
2018-08-12T13:50:43.234Z,3200.63
2018-08-12T13:51:41.435Z,3178.13
2018-08-12T13:52:41.413Z,3442.50
2018-08-12T13:53:41.500Z,3448.13
2018-08-12T13:54:42.152Z,3453.75
2018-08-12T13:55:41.377Z,3465.00
2018-08-12T13:56:41.368Z,3335.63
2018-08-12T13:57:41.434Z,3431.25
2018-08-12T13:58:41.438Z,3476.25
2018-08-12T14:01:26.177Z,3510.00
2018-08-12T14:02:42.050Z,3498.75
2018-08-12T14:04:29.949Z,3279.38
2018-08-12T14:05:29.670Z,3228.75
2018-08-12T14:07:32.452Z,3566.25
2018-08-12T14:08:32.382Z,3459.38
2018-08-12T14:10:38.783Z,3526.88
2018-08-12T14:11:38.485Z,3290.63
2018-08-12T14:13:43.164Z,3228.75
2018-08-12T14:14:42.921Z,3386.25
2018-08-12T14:16:40.139Z,3352.50
2018-08-12T14:17:40.253Z,3161.25
2018-08-12T14:19:44.842Z,3043.13
2018-08-12T14:20:43.144Z,2936.25
2018-08-12T14:22:46.600Z,3026.25
2018-08-12T14:23:46.725Z,3138.75
2018-08-12T14:25:42.887Z,3195.00
2018-08-12T14:26:42.816Z,3110.63
2018-08-12T14:28:41.724Z,3054.38
2018-08-12T14:29:41.647Z,2925.00
2018-08-12T14:31:44.736Z,2486.25
2018-08-12T14:32:45.101Z,2745.00
2018-08-12T14:34:42.868Z,2508.75
2018-08-12T14:35:42.862Z,2131.88
2018-08-12T14:37:39.416Z,2480.63
2018-08-12T14:38:39.252Z,2767.50
2018-08-12T14:39:39.823Z,2508.75
2018-08-12T14:40:39.271Z,2452.50
2018-08-12T14:41:39.130Z,2576.25
2018-08-12T14:42:39.118Z,2424.38
2018-08-12T14:43:39.099Z,2576.25
2018-08-12T14:44:39.212Z,2328.75
2018-08-12T14:45:39.209Z,2570.63
2018-08-12T14:46:39.093Z,2649.38
2018-08-12T14:47:39.070Z,2767.50
2018-08-12T14:48:39.135Z,2835.00
2018-08-12T14:49:39.044Z,2851.88
2018-08-12T14:50:39.040Z,2919.38
2018-08-12T14:51:39.306Z,3178.13
2018-08-12T14:52:39.129Z,4432.50
2018-08-12T14:53:39.039Z,7301.25
2018-08-12T14:54:39.050Z,9241.88
2018-08-12T14:55:39.004Z,8690.63
2018-08-12T14:56:39.035Z,8347.50
2018-08-12T14:57:39.039Z,8246.25
2018-08-12T14:58:39.116Z,8055.00
2018-08-12T14:59:39.015Z,7830.00
2018-08-12T15:00:38.974Z,7284.38
2018-08-12T15:01:39.059Z,6901.88
2018-08-12T15:03:12.402Z,6356.25
2018-08-12T15:03:39.239Z,5641.88
2018-08-12T15:04:40.497Z,5940.00
2018-08-12T15:05:39.627Z,5366.25
2018-08-12T15:08:33.533Z,4291.88
2018-08-12T15:09:30.028Z,4336.88
2018-08-12T15:10:29.958Z,4241.25
2018-08-12T15:11:30.317Z,4533.75
2018-08-12T15:12:30.139Z,4005.00
2018-08-12T15:13:29.749Z,4770.00
2018-08-12T15:14:29.661Z,4888.13
2018-08-12T15:15:29.703Z,4696.88
2018-08-12T15:16:29.616Z,5748.75
2018-08-12T15:17:29.614Z,5343.75
2018-08-12T15:18:29.678Z,4303.13
2018-08-12T15:19:29.593Z,4297.50
2018-08-12T15:20:29.601Z,4995.00
2018-08-12T15:21:29.590Z,4921.88
2018-08-12T15:22:29.680Z,4736.25
2018-08-12T15:23:29.571Z,4370.63
2018-08-12T15:24:29.632Z,4556.25
2018-08-12T15:25:29.572Z,3043.13
2018-08-12T15:26:29.587Z,4618.13
2018-08-12T15:27:31.321Z,5298.75
2018-08-12T15:28:29.549Z,4741.88
2018-08-12T15:29:31.108Z,5231.25
2018-08-12T15:30:29.589Z,5416.88
2018-08-12T15:31:29.517Z,5563.13
2018-08-12T15:32:29.596Z,6063.75
2018-08-12T15:33:29.506Z,5855.63
2018-08-12T15:34:29.505Z,5810.63
2018-08-12T15:35:29.569Z,6266.25
2018-08-12T15:36:32.264Z,6316.88
2018-08-12T15:37:29.546Z,6271.88
2018-08-12T15:38:29.545Z,5940.00
2018-08-12T15:39:29.566Z,5799.38
2018-08-12T15:40:29.461Z,5613.75
2018-08-12T15:41:29.463Z,5456.25
2018-08-12T15:42:29.456Z,5647.50
2018-08-12T15:43:29.620Z,5439.38
2018-08-12T15:44:29.464Z,5411.25
2018-08-12T15:45:29.556Z,4033.13
2018-08-12T15:46:29.478Z,4415.63
2018-08-12T15:47:29.505Z,4843.13
2018-08-12T15:48:32.176Z,3346.88
2018-08-12T15:49:29.409Z,4134.38
2018-08-12T15:50:29.405Z,3127.50
2018-08-12T15:51:29.399Z,4005.00
2018-08-12T15:52:29.397Z,3774.38
2018-08-12T15:53:38.733Z,3498.75
2018-08-12T15:55:50.130Z,3459.38
2018-08-12T15:56:31.745Z,4263.75
2018-08-12T15:58:36.363Z,4899.38
2018-08-12T15:59:36.445Z,4815.00
2018-08-12T16:00:35.858Z,4848.75
2018-08-12T16:01:35.759Z,4584.38
2018-08-12T16:02:35.693Z,4393.13
2018-08-12T16:03:37.608Z,3375.00
2018-08-12T16:04:35.659Z,3746.25
2018-08-12T16:05:35.666Z,2835.00
2018-08-12T16:06:37.620Z,3251.25
2018-08-12T16:07:35.683Z,3307.50
2018-08-12T16:08:35.653Z,3611.25
2018-08-12T16:09:35.664Z,3465.00
2018-08-12T16:10:35.675Z,3121.88
2018-08-12T16:11:37.319Z,4348.13
2018-08-12T16:13:35.592Z,1344.38
2018-08-12T16:14:35.592Z,1305.00
2018-08-12T16:15:35.642Z,1186.88
2018-08-12T16:16:35.748Z,1518.75
2018-08-12T16:17:35.567Z,1265.63
2018-08-12T16:18:35.584Z,978.75
2018-08-12T16:19:35.556Z,759.38
2018-08-12T16:20:35.545Z,697.50
2018-08-12T16:21:35.568Z,736.88
2018-08-12T16:22:35.620Z,900.00
2018-08-12T16:23:35.526Z,714.38
2018-08-12T16:24:35.504Z,731.25
2018-08-12T16:25:35.490Z,765.00
2018-08-12T16:26:35.469Z,658.13
2018-08-12T16:27:35.506Z,821.25
2018-08-12T16:28:37.152Z,646.88
2018-08-12T16:29:37.162Z,646.88
2018-08-12T16:30:35.425Z,641.25
2018-08-12T16:31:35.415Z,641.25
2018-08-12T16:32:35.404Z,646.88
2018-08-12T16:33:35.377Z,641.25
2018-08-12T16:34:35.354Z,641.25
2018-08-12T16:35:35.347Z,646.88
2018-08-12T16:36:35.343Z,641.25
2018-08-12T16:37:35.393Z,635.63
2018-08-12T16:38:35.306Z,630.00
2018-08-12T16:39:35.701Z,635.63
2018-08-12T16:40:35.328Z,624.38
2018-08-12T16:41:35.256Z,618.75
2018-08-12T16:42:35.241Z,618.75
2018-08-12T16:43:35.244Z,613.13
2018-08-12T16:44:35.222Z,613.13
2018-08-12T16:45:35.208Z,607.50
2018-08-12T16:46:35.187Z,607.50
2018-08-12T16:47:35.203Z,601.88
2018-08-12T16:48:35.170Z,590.63
2018-08-12T16:49:35.139Z,579.38
2018-08-12T16:50:35.147Z,585.00
2018-08-12T16:51:35.129Z,579.38
2018-08-12T16:52:35.096Z,568.13
2018-08-12T16:53:35.073Z,562.50
2018-08-12T16:54:35.100Z,562.50
2018-08-12T16:55:35.083Z,551.25
2018-08-12T16:56:35.060Z,545.63
2018-08-12T16:57:35.029Z,534.38
2018-08-12T16:58:34.992Z,528.75
2018-08-12T16:59:35.505Z,523.13
2018-08-12T17:00:34.986Z,517.50
2018-08-12T17:01:34.942Z,528.75
2018-08-12T17:02:34.966Z,528.75
2018-08-12T17:03:34.927Z,540.00
2018-08-12T17:04:36.653Z,540.00
2018-08-12T17:05:36.590Z,618.75
2018-08-12T17:06:34.946Z,613.13
2018-08-12T17:07:34.882Z,556.88
2018-08-12T17:08:37.831Z,545.63
2018-08-12T17:09:34.876Z,528.75
2018-08-12T17:10:34.889Z,534.38
2018-08-12T17:11:34.818Z,545.63
2018-08-12T17:12:34.799Z,540.00
2018-08-12T17:13:34.767Z,545.63
2018-08-12T17:14:34.745Z,540.00
2018-08-12T17:15:35.146Z,556.88
2018-08-12T17:16:34.707Z,607.50
2018-08-12T17:17:34.705Z,596.25
2018-08-12T17:18:55.946Z,545.63
2018-08-12T17:19:35.739Z,511.88
2018-08-12T17:20:34.773Z,500.63
2018-08-12T17:21:34.666Z,489.38
2018-08-12T17:22:34.733Z,489.38
2018-08-12T17:23:34.685Z,483.75
2018-08-12T17:24:34.692Z,472.50
2018-08-12T17:25:34.617Z,466.88
2018-08-12T17:26:34.569Z,461.25
2018-08-12T17:27:34.589Z,444.38
2018-08-12T17:28:34.503Z,433.13
2018-08-12T17:29:35.445Z,427.50
2018-08-12T17:30:34.550Z,416.25
2018-08-12T17:31:34.527Z,405.00
2018-08-12T17:32:36.185Z,393.75
2018-08-12T17:33:34.463Z,382.50
2018-08-12T17:34:36.299Z,388.13
2018-08-12T17:35:34.555Z,376.88
2018-08-12T17:36:34.356Z,371.25
2018-08-12T17:37:34.418Z,365.63
2018-08-12T17:38:34.441Z,354.38
2018-08-12T17:39:34.303Z,348.75
2018-08-12T17:40:34.299Z,343.13
2018-08-12T17:41:34.301Z,326.25
2018-08-12T17:42:34.313Z,315.00
2018-08-12T17:43:34.234Z,298.13
2018-08-12T17:44:34.410Z,286.88
2018-08-12T17:45:34.211Z,275.63
2018-08-12T17:46:34.200Z,270.00
2018-08-12T17:47:34.167Z,253.13
2018-08-12T17:48:34.313Z,253.13
2018-08-12T17:49:34.245Z,241.88
2018-08-12T17:50:34.184Z,236.25
2018-08-12T17:51:34.259Z,236.25
2018-08-12T17:52:35.651Z,230.63
2018-08-12T17:53:34.119Z,225.00
2018-08-12T17:54:34.843Z,219.38
2018-08-12T17:55:34.043Z,213.75
2018-08-12T17:56:34.002Z,208.13
2018-08-12T17:57:34.054Z,202.50
2018-08-12T17:58:33.961Z,202.50
2018-08-12T17:59:33.969Z,196.88
2018-08-12T18:00:33.927Z,191.25
2018-08-12T18:01:33.911Z,191.25
2018-08-12T18:02:33.954Z,191.25
2018-08-12T18:03:33.988Z,185.63
2018-08-12T18:04:33.857Z,185.63
2018-08-12T18:05:33.940Z,191.25
2018-08-12T18:06:36.582Z,191.25
2018-08-12T18:07:33.799Z,191.25
2018-08-12T18:08:50.972Z,185.63
2018-08-12T18:10:32.364Z,185.63
2018-08-12T18:11:32.298Z,185.63
2018-08-12T18:13:54.615Z,174.38
2018-08-12T18:14:35.095Z,168.75
2018-08-12T18:16:32.999Z,157.50
2018-08-12T18:17:33.089Z,151.88
2018-08-12T18:19:34.546Z,140.63
2018-08-12T18:20:34.316Z,129.38
2018-08-12T18:21:49.009Z,129.38
2018-08-12T18:23:32.123Z,112.50
2018-08-12T18:24:31.588Z,106.88
2018-08-12T18:29:42.824Z,90.00
2018-08-12T18:30:00.802Z,90.00
2018-08-12T18:32:06.162Z,78.75
2018-08-12T18:33:05.110Z,78.75
2018-08-12T18:35:00.136Z,73.13
2018-08-12T18:36:00.584Z,67.50
2018-08-12T18:38:00.492Z,61.88
2018-08-12T18:39:00.974Z,56.25
2018-08-12T18:40:57.247Z,50.63
2018-08-12T18:41:57.456Z,50.63
2018-08-12T18:43:54.454Z,45.00
2018-08-12T18:44:52.293Z,39.38
2018-08-12T18:46:56.326Z,33.75
2018-08-12T18:47:56.056Z,33.75
2018-08-12T18:48:55.147Z,28.13
2018-08-12T18:49:55.215Z,22.50
2018-08-12T18:50:54.716Z,22.50
2018-08-12T18:51:54.563Z,22.50
2018-08-12T18:52:54.230Z,16.88
2018-08-12T18:53:54.223Z,16.88
2018-08-12T18:54:54.273Z,11.25
2018-08-12T18:55:54.841Z,11.25
2018-08-12T18:56:54.173Z,11.25
2018-08-12T18:57:54.175Z,11.25
2018-08-12T18:58:54.148Z,11.25
2018-08-12T18:59:54.122Z,11.25
2018-08-12T19:00:54.111Z,5.63
2018-08-12T19:02:07.807Z,5.63
2018-08-12T19:03:53.641Z,5.63
2018-08-12T19:04:53.219Z,5.63
2018-08-12T19:06:53.922Z,5.63
2018-08-12T19:07:54.129Z,5.63
2018-08-12T19:09:52.818Z,0.00
2018-08-12T19:12:54.562Z,0.00
2018-08-12T19:13:54.373Z,0.00
2018-08-12T19:15:56.713Z,0.00
2018-08-12T19:16:53.796Z,0.00
2018-08-12T19:18:55.061Z,0.00
2018-08-12T19:19:54.970Z,0.00
2018-08-12T19:21:52.423Z,0.00
2018-08-12T19:22:52.360Z,0.00
2018-08-12T19:23:52.167Z,0.00
2018-08-12T19:24:51.348Z,0.00
2018-08-12T19:25:51.301Z,0.00
2018-08-12T19:26:50.356Z,0.00
2018-08-12T19:27:49.872Z,0.00
2018-08-12T19:28:50.037Z,0.00
2018-08-12T19:29:49.789Z,0.00
2018-08-12T19:30:49.974Z,0.00
2018-08-12T19:31:49.717Z,0.00
2018-08-12T19:32:49.768Z,0.00
2018-08-12T19:33:49.706Z,0.00
2018-08-12T19:34:49.698Z,0.00
2018-08-12T19:35:49.556Z,0.00
2018-08-12T19:36:49.644Z,0.00
2018-08-12T19:37:49.538Z,0.00
2018-08-12T19:38:49.505Z,0.00
2018-08-12T19:39:49.488Z,0.00
2018-08-12T19:40:49.470Z,0.00
2018-08-12T19:41:49.446Z,0.00
2018-08-12T19:42:49.476Z,0.00
2018-08-12T19:43:49.847Z,0.00
2018-08-12T19:44:49.362Z,0.00
2018-08-12T19:45:49.356Z,0.00
2018-08-12T19:47:11.349Z,0.00
2018-08-12T19:48:45.650Z,0.00
2018-08-12T19:49:45.768Z,0.00
2018-08-12T19:51:45.641Z,0.00
2018-08-12T19:52:46.077Z,0.00
2018-08-12T19:54:43.931Z,0.00
2018-08-12T19:55:42.498Z,0.00
2018-08-12T19:57:41.890Z,0.00
2018-08-12T19:58:41.644Z,0.00
2018-08-12T20:00:45.865Z,0.00
2018-08-12T20:01:46.434Z,0.00
2018-08-12T20:03:40.687Z,0.00
2018-08-12T20:04:40.006Z,0.00
2018-08-12T20:06:46.687Z,0.00
2018-08-12T20:07:46.203Z,0.00
2018-08-12T20:09:50.146Z,0.00
2018-08-12T20:10:49.858Z,0.00
2018-08-12T20:12:53.692Z,0.00
2018-08-12T20:13:53.275Z,0.00
2018-08-12T20:15:56.186Z,0.00
2018-08-12T20:16:55.849Z,0.00
2018-08-12T20:18:53.985Z,0.00
2018-08-12T20:19:55.004Z,0.00
2018-08-12T20:21:54.309Z,0.00
2018-08-12T20:22:53.819Z,0.00
2018-08-12T20:24:54.394Z,0.00
2018-08-12T20:25:53.326Z,0.00
2018-08-12T20:27:54.088Z,0.00
2018-08-12T20:28:51.862Z,0.00
2018-08-12T20:30:58.111Z,0.00
2018-08-12T20:31:57.101Z,0.00
2018-08-12T20:32:56.642Z,0.00
2018-08-12T20:33:58.692Z,0.00
2018-08-12T20:34:57.173Z,0.00
2018-08-12T20:35:56.292Z,0.00
2018-08-12T20:36:57.558Z,0.00
2018-08-12T20:37:55.966Z,0.00
2018-08-12T20:38:55.915Z,0.00
2018-08-12T20:39:57.647Z,0.00
2018-08-12T20:40:55.966Z,0.00
2018-08-12T20:41:55.790Z,0.00
2018-08-12T20:42:55.674Z,0.00
2018-08-12T20:43:55.732Z,0.00
2018-08-12T20:44:55.648Z,0.00
2018-08-12T20:45:55.649Z,0.00
2018-08-12T20:46:55.579Z,0.00
2018-08-12T20:47:55.555Z,0.00
2018-08-12T20:48:55.798Z,0.00
2018-08-12T20:49:55.506Z,0.00
2018-08-12T20:50:55.481Z,0.00
2018-08-12T20:51:55.482Z,0.00
2018-08-12T20:52:55.439Z,0.00
2018-08-12T20:53:56.983Z,0.00
2018-08-12T20:55:15.249Z,0.00
2018-08-12T20:56:55.143Z,0.00
2018-08-12T20:57:54.016Z,0.00
2018-08-12T20:59:49.107Z,0.00
2018-08-12T21:00:49.331Z,0.00
2018-08-12T21:02:54.465Z,0.00
2018-08-12T21:03:50.964Z,0.00
2018-08-12T21:05:47.604Z,0.00
2018-08-12T21:06:48.394Z,0.00
2018-08-12T21:08:46.221Z,0.00
2018-08-12T21:09:44.220Z,0.00
2018-08-12T21:11:41.288Z,0.00
2018-08-12T21:12:41.062Z,0.00
2018-08-12T21:14:47.201Z,0.00
2018-08-12T21:15:46.169Z,0.00
2018-08-12T21:16:45.859Z,0.00
2018-08-12T21:17:46.980Z,0.00
2018-08-12T21:18:45.664Z,0.00
2018-08-12T21:19:45.465Z,0.00
2018-08-12T21:20:47.207Z,0.00
2018-08-12T21:21:45.095Z,0.00
2018-08-12T21:22:45.071Z,0.00
2018-08-12T21:23:45.049Z,0.00
2018-08-12T21:24:45.019Z,0.00
2018-08-12T21:25:45.220Z,0.00
2018-08-12T21:26:45.033Z,0.00
2018-08-12T21:27:45.057Z,0.00
2018-08-12T21:28:45.186Z,0.00
2018-08-12T21:30:09.899Z,0.00
2018-08-12T21:31:50.934Z,0.00
2018-08-12T21:32:49.454Z,0.00
2018-08-12T21:34:51.311Z,0.00
2018-08-12T21:35:50.739Z,0.00
2018-08-12T21:38:00.255Z,0.00
2018-08-12T21:39:00.822Z,0.00
2018-08-12T21:40:00.311Z,0.00
2018-08-12T21:41:00.890Z,0.00
2018-08-12T21:42:00.272Z,0.00
2018-08-12T21:43:00.022Z,0.00
2018-08-12T21:43:59.641Z,0.00
2018-08-12T21:45:17.086Z,0.00
2018-08-12T21:47:16.968Z,0.00
2018-08-12T21:50:30.684Z,0.00
2018-08-12T21:51:31.189Z,0.00
2018-08-12T21:56:01.096Z,0.00
2018-08-12T21:56:13.170Z,0.00
2018-08-12T21:58:16.770Z,0.00
2018-08-12T21:59:16.440Z,0.00
2018-08-12T22:01:18.898Z,0.00
2018-08-12T22:02:18.797Z,0.00
2018-08-12T22:04:24.594Z,0.00
2018-08-12T22:05:25.306Z,0.00
2018-08-12T22:07:29.323Z,0.00
2018-08-12T22:08:28.953Z,0.00
2018-08-12T22:10:37.726Z,0.00
2018-08-12T22:11:38.403Z,0.00
2018-08-12T22:12:37.497Z,0.00
2018-08-12T22:13:37.535Z,0.00
2018-08-12T22:14:37.961Z,0.00
2018-08-12T22:15:37.349Z,0.00
2018-08-12T22:16:37.943Z,0.00
2018-08-12T22:17:36.974Z,0.00
2018-08-12T22:18:36.987Z,0.00
2018-08-12T22:19:36.979Z,0.00
2018-08-12T22:20:36.910Z,0.00
2018-08-12T22:21:37.906Z,0.00
2018-08-12T22:22:36.871Z,0.00
2018-08-12T22:23:36.860Z,0.00
2018-08-12T22:24:36.854Z,0.00
2018-08-12T22:25:36.828Z,0.00
2018-08-12T22:26:36.795Z,0.00
2018-08-12T22:27:36.753Z,0.00
2018-08-12T22:28:36.732Z,0.00
2018-08-12T22:29:36.717Z,0.00
2018-08-12T22:30:36.767Z,0.00
2018-08-12T22:31:36.643Z,0.00
2018-08-12T22:32:36.640Z,0.00
2018-08-12T22:33:36.674Z,0.00
2018-08-12T22:34:36.576Z,0.00
2018-08-12T22:35:36.573Z,0.00
2018-08-12T22:36:36.561Z,0.00
2018-08-12T22:37:36.535Z,0.00
2018-08-12T22:38:38.335Z,0.00
2018-08-12T22:39:36.563Z,0.00
2018-08-12T22:40:36.445Z,0.00
2018-08-12T22:41:36.480Z,0.00
2018-08-12T22:42:36.493Z,0.00
2018-08-12T22:43:36.413Z,0.00
2018-08-12T22:44:36.333Z,0.00
2018-08-12T22:45:36.359Z,0.00
2018-08-12T22:46:36.433Z,0.00
2018-08-12T22:47:36.279Z,0.00
2018-08-12T22:48:36.317Z,0.00
2018-08-12T22:49:36.312Z,0.00
2018-08-12T22:50:36.273Z,0.00
2018-08-12T22:51:36.162Z,0.00
2018-08-12T22:52:36.172Z,0.00
2018-08-12T22:53:36.183Z,0.00
2018-08-12T22:54:36.158Z,0.00
2018-08-12T22:55:36.169Z,0.00
2018-08-12T22:56:36.064Z,0.00
2018-08-12T22:57:36.012Z,0.00
2018-08-12T22:58:36.055Z,0.00
2018-08-12T22:59:36.044Z,0.00
2018-08-12T23:00:35.993Z,0.00
2018-08-12T23:01:35.971Z,0.00
2018-08-12T23:02:35.942Z,0.00
2018-08-12T23:03:36.029Z,0.00
2018-08-12T23:04:35.873Z,0.00
2018-08-12T23:05:35.839Z,0.00
2018-08-12T23:06:35.842Z,0.00
2018-08-12T23:07:35.852Z,0.00
2018-08-12T23:08:36.070Z,0.00
2018-08-12T23:09:35.729Z,0.00
2018-08-12T23:10:35.726Z,0.00
2018-08-12T23:11:35.677Z,0.00
2018-08-12T23:12:35.650Z,0.00
2018-08-12T23:13:35.785Z,0.00
2018-08-12T23:14:35.602Z,0.00
2018-08-12T23:15:35.650Z,0.00
2018-08-12T23:16:35.595Z,0.00
2018-08-12T23:17:35.535Z,0.00
2018-08-12T23:18:35.499Z,0.00
2018-08-12T23:19:35.534Z,0.00
2018-08-12T23:20:35.452Z,0.00
2018-08-12T23:21:35.545Z,0.00
2018-08-12T23:22:37.007Z,0.00
2018-08-12T23:23:35.430Z,0.00
2018-08-12T23:24:35.374Z,0.00
2018-08-12T23:25:35.481Z,0.00
2018-08-12T23:26:35.394Z,0.00
2018-08-12T23:27:35.297Z,0.00
2018-08-12T23:28:35.271Z,0.00
2018-08-12T23:29:35.235Z,0.00
2018-08-12T23:30:35.206Z,0.00
2018-08-12T23:31:35.184Z,0.00
2018-08-12T23:32:35.272Z,0.00
2018-08-12T23:33:35.247Z,0.00
2018-08-12T23:34:35.289Z,0.00
2018-08-12T23:35:35.098Z,0.00
2018-08-12T23:36:35.157Z,0.00
2018-08-12T23:37:35.047Z,0.00
2018-08-12T23:38:36.451Z,0.00
2018-08-12T23:39:35.034Z,0.00
2018-08-12T23:40:34.959Z,0.00
2018-08-12T23:41:34.977Z,0.00
2018-08-12T23:42:34.910Z,0.00
2018-08-12T23:43:34.895Z,0.00
2018-08-12T23:44:34.866Z,0.00
2018-08-12T23:45:48.011Z,0.00
2018-08-12T23:47:31.895Z,0.00
2018-08-12T23:48:32.153Z,0.00
2018-08-12T23:50:29.522Z,0.00
2018-08-12T23:51:30.020Z,0.00
2018-08-12T23:53:25.592Z,0.00
2018-08-12T23:54:25.609Z,0.00
2018-08-12T23:55:25.435Z,0.00
2018-08-12T23:56:25.254Z,0.00
2018-08-12T23:57:25.115Z,0.00
2018-08-12T23:58:25.071Z,0.00
2018-08-12T23:59:24.961Z,0.00
